Time;durP1;ratioP1;P1;durP2;ratioP2;P2;SDS_P1;SDS_P2;PMS_P1;PMS_P2;Temp;Humidity;BMP_temperature;BMP_pressure;BME280_temperature;BME280_humidity;BME280_pressure;Samples;Min_cycle;Max_cycle;Signal;HPM_P1;HPM_P2
2023/03/16 00:01:22;;;;;;;7.30;5.27;;;;;;;;;;5083627;28;20211;-42
2023/03/16 00:03:49;;;;;;;5.40;4.77;;;;;;;;;;5079587;28;20260;-35
2023/03/16 00:06:16;;;;;;;5.27;4.73;;;;;;;;;;5085370;28;20201;-34
2023/03/16 00:08:43;;;;;;;7.73;4.90;;;;;;;;;;5090970;28;20212;-26
2023/03/16 00:11:11;;;;;;;5.33;4.63;;;;;;;;;;5092027;28;20214;-34
2023/03/16 00:13:38;;;;;;;6.80;4.97;;;;;;;;;;5089338;28;20523;-35
2023/03/16 00:16:06;;;;;;;5.90;4.80;;;;;;;;;;5089016;28;20231;-29
2023/03/16 00:18:37;;;;;;;5.87;4.57;;;;;;;;;;5091853;28;20209;-33
2023/03/16 00:21:05;;;;;;;5.77;5.17;;;;;;;;;;5091492;28;20296;-33
2023/03/16 00:23:34;;;;;;;6.37;5.47;;;;;;;;;;5084122;28;20205;-28
2023/03/16 00:26:02;;;;;;;5.93;4.93;;;;;;;;;;5080979;28;20232;-27
2023/03/16 00:28:33;;;;;;;6.43;5.10;;;;;;;;;;5084147;28;20213;-33
2023/03/16 00:31:00;;;;;;;8.67;4.63;;;;;;;;;;5082579;28;20208;-29
2023/03/16 00:33:29;;;;;;;6.27;4.77;;;;;;;;;;5084407;28;20201;-26
2023/03/16 00:36:02;;;;;;;5.40;4.60;;;;;;;;;;5087221;28;20237;-28
2023/03/16 00:38:29;;;;;;;5.83;5.23;;;;;;;;;;5079996;28;20205;-34
2023/03/16 00:40:56;;;;;;;6.43;4.47;;;;;;;;;;5074114;28;20205;-34
2023/03/16 00:43:26;;;;;;;5.23;4.33;;;;;;;;;;5085636;28;20678;-31
2023/03/16 00:45:58;;;;;;;7.73;4.70;;;;;;;;;;5084851;28;20220;-34
2023/03/16 00:48:25;;;;;;;5.50;4.50;;;;;;;;;;5086901;28;20221;-32
2023/03/16 00:50:54;;;;;;;6.93;4.93;;;;;;;;;;5087202;28;20228;-34
2023/03/16 00:53:22;;;;;;;6.70;5.00;;;;;;;;;;5080653;28;20213;-31
2023/03/16 00:55:49;;;;;;;6.93;4.50;;;;;;;;;;5070810;28;20228;-33
2023/03/16 00:58:16;;;;;;;8.03;5.20;;;;;;;;;;5084864;28;20228;-30
2023/03/16 01:00:44;;;;;;;6.00;4.47;;;;;;;;;;5079283;28;20230;-36
2023/03/16 01:03:11;;;;;;;4.77;4.17;;;;;;;;;;5087728;28;20296;-30
2023/03/16 01:05:40;;;;;;;5.83;5.23;;;;;;;;;;5088791;28;20200;-33
2023/03/16 01:08:09;;;;;;;5.23;4.30;;;;;;;;;;5084870;28;20224;-33
2023/03/16 01:10:36;;;;;;;5.87;4.23;;;;;;;;;;5078677;28;20202;-32
2023/03/16 01:13:03;;;;;;;6.27;4.67;;;;;;;;;;5087875;28;20208;-33
2023/03/16 01:15:31;;;;;;;5.83;4.23;;;;;;;;;;5080437;28;20216;-28
2023/03/16 01:17:59;;;;;;;5.77;4.73;;;;;;;;;;5087032;28;20252;-31
2023/03/16 01:20:26;;;;;;;6.80;4.47;;;;;;;;;;5087080;28;20208;-31
2023/03/16 01:22:53;;;;;;;9.20;4.83;;;;;;;;;;5082710;28;20207;-34
2023/03/16 01:25:23;;;;;;;6.93;4.90;;;;;;;;;;5083061;28;20651;-33
2023/03/16 01:27:52;;;;;;;6.20;4.57;;;;;;;;;;5078338;28;20220;-35
2023/03/16 01:30:19;;;;;;;5.60;4.30;;;;;;;;;;5080868;28;20232;-29
2023/03/16 01:32:47;;;;;;;7.33;4.83;;;;;;;;;;5086392;28;20211;-32
2023/03/16 01:35:14;;;;;;;7.93;5.10;;;;;;;;;;5087686;28;20208;-31
2023/03/16 01:37:41;;;;;;;5.97;4.10;;;;;;;;;;5077968;28;20224;-26
2023/03/16 01:40:11;;;;;;;5.47;4.17;;;;;;;;;;5086090;28;20215;-30
2023/03/16 01:42:49;;;;;;;7.47;4.60;;;;;;;;;;5086587;28;20209;-32
2023/03/16 01:45:35;;;;;;;5.53;4.10;;;;;;;;;;5078083;28;20200;-29
2023/03/16 01:48:03;;;;;;;5.63;4.27;;;;;;;;;;5080096;28;20227;-33
2023/03/16 01:50:30;;;;;;;7.47;5.50;;;;;;;;;;5087047;28;20272;-30
2023/03/16 01:52:57;;;;;;;5.47;4.87;;;;;;;;;;5082545;28;20299;-32
2023/03/16 01:55:24;;;;;;;6.27;4.70;;;;;;;;;;5085861;28;20408;-31
2023/03/16 01:57:53;;;;;;;5.50;4.50;;;;;;;;;;5087117;28;20247;-31
2023/03/16 02:00:23;;;;;;;5.80;4.40;;;;;;;;;;5072989;28;20209;-35
2023/03/16 02:02:53;;;;;;;6.40;4.30;;;;;;;;;;5088906;28;20270;-29
2023/03/16 02:05:22;;;;;;;6.37;4.33;;;;;;;;;;5086121;28;20259;-31
2023/03/16 02:07:51;;;;;;;6.37;5.23;;;;;;;;;;5086683;28;20256;-31
2023/03/16 02:10:19;;;;;;;6.90;5.00;;;;;;;;;;5077352;28;20216;-31
2023/03/16 02:12:47;;;;;;;7.53;5.00;;;;;;;;;;5077597;28;20212;-29
2023/03/16 02:15:15;;;;;;;5.37;4.57;;;;;;;;;;5079961;28;20227;-28
2023/03/16 02:17:44;;;;;;;6.80;5.17;;;;;;;;;;5088113;28;20224;-27
2023/03/16 02:20:22;;;;;;;6.73;5.67;;;;;;;;;;5091995;28;20291;-32
2023/03/16 02:22:52;;;;;;;5.20;4.40;;;;;;;;;;5086321;28;20220;-31
2023/03/16 02:25:21;;;;;;;6.97;6.03;;;;;;;;;;5086996;28;20285;-30
2023/03/16 02:27:54;;;;;;;4.97;4.30;;;;;;;;;;5086902;28;20259;-33
2023/03/16 02:30:22;;;;;;;5.63;4.57;;;;;;;;;;5089413;28;20674;-35
2023/03/16 02:32:51;;;;;;;8.07;6.53;;;;;;;;;;5080126;28;20291;-29
2023/03/16 02:35:19;;;;;;;6.60;5.23;;;;;;;;;;5086989;28;20295;-34
2023/03/16 02:37:47;;;;;;;5.77;4.70;;;;;;;;;;5087198;28;20228;-30
2023/03/16 02:40:19;;;;;;;7.33;5.10;;;;;;;;;;5078910;28;20216;-33
2023/03/16 02:42:47;;;;;;;8.07;4.83;;;;;;;;;;5085607;28;20189;-31
2023/03/16 02:45:14;;;;;;;7.07;4.80;;;;;;;;;;5079562;28;20216;-34
2023/03/16 02:47:44;;;;;;;6.67;5.03;;;;;;;;;;5078062;28;20231;-30
2023/03/16 02:50:12;;;;;;;8.30;4.97;;;;;;;;;;5090335;28;20208;-29
2023/03/16 02:52:40;;;;;;;6.37;4.87;;;;;;;;;;5083841;28;20200;-32
2023/03/16 02:55:09;;;;;;;6.63;5.77;;;;;;;;;;5082225;28;20233;-35
2023/03/16 02:57:36;;;;;;;5.70;5.10;;;;;;;;;;5084994;28;20220;-34
2023/03/16 03:00:10;;;;;;;7.10;5.27;;;;;;;;;;5081563;28;20770;-31
2023/03/16 03:02:37;;;;;;;6.00;5.10;;;;;;;;;;5085204;28;20307;-35
2023/03/16 03:05:05;;;;;;;6.77;5.13;;;;;;;;;;5086315;28;20208;-34
2023/03/16 03:07:32;;;;;;;7.13;4.73;;;;;;;;;;5078574;28;20220;-32
2023/03/16 03:10:04;;;;;;;4.80;4.13;;;;;;;;;;5077721;28;20232;-29
2023/03/16 03:12:31;;;;;;;7.70;4.97;;;;;;;;;;5085736;28;20425;-34
2023/03/16 03:14:59;;;;;;;5.90;4.70;;;;;;;;;;5081779;28;20224;-34
2023/03/16 03:17:29;;;;;;;7.53;5.20;;;;;;;;;;5084775;28;20229;-28
2023/03/16 03:19:56;;;;;;;7.00;5.00;;;;;;;;;;5087632;28;20213;-33
2023/03/16 03:22:27;;;;;;;9.47;5.17;;;;;;;;;;5084169;28;20310;-32
2023/03/16 03:24:54;;;;;;;5.33;4.83;;;;;;;;;;5088382;28;20208;-30
2023/03/16 03:27:23;;;;;;;6.77;4.30;;;;;;;;;;5088494;28;20221;-34
2023/03/16 03:29:51;;;;;;;5.03;4.50;;;;;;;;;;5077695;28;20205;-34
2023/03/16 03:32:18;;;;;;;6.87;5.17;;;;;;;;;;5088008;28;20207;-33
2023/03/16 03:34:45;;;;;;;7.57;5.17;;;;;;;;;;5088928;28;20204;-29
2023/03/16 03:37:12;;;;;;;5.73;5.00;;;;;;;;;;5081008;28;20229;-29
2023/03/16 03:39:40;;;;;;;5.10;4.03;;;;;;;;;;5085789;28;20212;-30
2023/03/16 03:42:09;;;;;;;5.47;4.53;;;;;;;;;;5088217;28;20211;-30
2023/03/16 03:44:36;;;;;;;7.07;4.77;;;;;;;;;;5082061;28;20205;-30
2023/03/16 03:47:04;;;;;;;5.40;4.20;;;;;;;;;;5087155;28;20235;-34
2023/03/16 03:49:31;;;;;;;6.23;4.40;;;;;;;;;;5087324;28;20212;-35
2023/03/16 03:52:00;;;;;;;5.97;4.47;;;;;;;;;;5084266;28;20212;-30
2023/03/16 03:54:28;;;;;;;6.80;4.77;;;;;;;;;;5076098;28;20232;-31
2023/03/16 03:56:56;;;;;;;5.67;4.33;;;;;;;;;;5087599;28;20223;-35
2023/03/16 03:59:25;;;;;;;5.37;4.67;;;;;;;;;;5081653;28;20223;-31
2023/03/16 04:01:52;;;;;;;8.27;4.87;;;;;;;;;;5088068;28;20215;-26
2023/03/16 04:04:20;;;;;;;5.87;4.83;;;;;;;;;;5087318;28;20226;-30
2023/03/16 04:06:47;;;;;;;7.03;5.40;;;;;;;;;;5084958;28;20225;-32
2023/03/16 04:09:14;;;;;;;8.73;4.93;;;;;;;;;;5087483;28;20484;-35
2023/03/16 04:11:41;;;;;;;8.13;4.90;;;;;;;;;;5086961;28;20211;-29
2023/03/16 04:14:10;;;;;;;6.87;5.07;;;;;;;;;;5083466;28;20213;-30
2023/03/16 04:16:37;;;;;;;7.87;4.97;;;;;;;;;;5086501;28;20220;-29
2023/03/16 04:19:04;;;;;;;5.60;4.97;;;;;;;;;;5087480;28;20196;-34
2023/03/16 04:21:31;;;;;;;7.53;5.33;;;;;;;;;;5083598;28;20224;-29
2023/03/16 04:23:58;;;;;;;8.67;5.20;;;;;;;;;;5081416;28;20209;-28
2023/03/16 04:26:25;;;;;;;7.50;5.60;;;;;;;;;;5087045;28;20278;-33
2023/03/16 04:28:52;;;;;;;6.50;4.87;;;;;;;;;;5079876;28;20216;-32
2023/03/16 04:31:21;;;;;;;7.37;5.33;;;;;;;;;;5082577;28;20200;-30
2023/03/16 04:33:48;;;;;;;6.80;5.17;;;;;;;;;;5078438;28;20204;-32
2023/03/16 04:36:15;;;;;;;7.13;4.93;;;;;;;;;;5086635;28;20216;-28
2023/03/16 04:38:42;;;;;;;6.13;4.87;;;;;;;;;;5075942;28;20205;-31
2023/03/16 04:41:11;;;;;;;7.53;5.70;;;;;;;;;;5078290;28;20204;-31
2023/03/16 04:43:38;;;;;;;8.17;5.77;;;;;;;;;;5081190;28;20240;-32
2023/03/16 04:46:06;;;;;;;6.73;5.33;;;;;;;;;;5081831;28;20431;-35
2023/03/16 04:48:34;;;;;;;6.70;4.80;;;;;;;;;;5086676;28;20212;-29
2023/03/16 04:51:02;;;;;;;6.33;5.10;;;;;;;;;;5083275;28;20241;-33
2023/03/16 04:53:30;;;;;;;8.13;5.57;;;;;;;;;;5078116;28;20239;-29
2023/03/16 04:55:57;;;;;;;7.93;5.87;;;;;;;;;;5086732;28;20293;-30
2023/03/16 04:58:25;;;;;;;9.80;6.60;;;;;;;;;;5082495;28;20229;-36
2023/03/16 05:00:54;;;;;;;9.00;6.47;;;;;;;;;;5077250;28;20225;-29
2023/03/16 05:03:21;;;;;;;9.43;6.00;;;;;;;;;;5086741;28;20208;-32
2023/03/16 05:05:50;;;;;;;9.37;5.83;;;;;;;;;;5086949;28;20192;-29
2023/03/16 05:08:17;;;;;;;8.30;6.23;;;;;;;;;;5088180;28;20221;-34
2023/03/16 05:10:46;;;;;;;9.60;6.47;;;;;;;;;;5081885;28;20201;-35
2023/03/16 05:13:14;;;;;;;10.17;6.83;;;;;;;;;;5087448;28;20196;-31
2023/03/16 05:15:41;;;;;;;10.27;7.00;;;;;;;;;;5082739;28;20228;-31
2023/03/16 05:18:08;;;;;;;9.13;6.07;;;;;;;;;;5086463;28;20229;-34
2023/03/16 05:20:35;;;;;;;9.87;6.57;;;;;;;;;;5086559;28;20211;-32
2023/03/16 05:23:04;;;;;;;8.80;5.50;;;;;;;;;;5075839;28;20209;-32
2023/03/16 05:25:31;;;;;;;12.60;6.37;;;;;;;;;;5083343;28;20211;-29
2023/03/16 05:27:58;;;;;;;9.37;6.50;;;;;;;;;;5086614;28;20228;-26
2023/03/16 05:30:25;;;;;;;8.50;6.60;;;;;;;;;;5079627;28;20236;-34
2023/03/16 05:32:53;;;;;;;8.93;6.43;;;;;;;;;;5085712;28;20207;-29
2023/03/16 05:35:20;;;;;;;9.03;6.77;;;;;;;;;;5086309;28;20197;-33
2023/03/16 05:37:48;;;;;;;10.33;6.10;;;;;;;;;;5083933;28;20230;-33
2023/03/16 05:40:17;;;;;;;8.97;6.37;;;;;;;;;;5078850;28;20219;-36
2023/03/16 05:42:45;;;;;;;10.03;6.93;;;;;;;;;;5088711;28;20269;-28
2023/03/16 05:45:12;;;;;;;12.13;6.63;;;;;;;;;;5082191;28;20215;-30
2023/03/16 05:47:41;;;;;;;10.40;6.47;;;;;;;;;;5088387;28;20224;-25
2023/03/16 05:50:10;;;;;;;8.63;6.47;;;;;;;;;;5089345;28;20205;-29
2023/03/16 05:52:37;;;;;;;9.83;6.67;;;;;;;;;;5088119;28;20211;-29
2023/03/16 05:55:05;;;;;;;10.97;6.87;;;;;;;;;;5083993;28;20209;-31
2023/03/16 05:57:33;;;;;;;9.43;6.57;;;;;;;;;;5086560;28;20231;-29
2023/03/16 06:00:02;;;;;;;9.70;6.90;;;;;;;;;;5079718;28;20208;-29
2023/03/16 06:02:29;;;;;;;9.83;6.53;;;;;;;;;;5087273;28;20209;-27
2023/03/16 06:04:58;;;;;;;8.63;6.10;;;;;;;;;;5089169;28;20245;-25
2023/03/16 06:07:25;;;;;;;10.20;7.63;;;;;;;;;;5088229;28;20221;-30
2023/03/16 06:09:52;;;;;;;10.80;7.80;;;;;;;;;;5072689;28;20201;-33
2023/03/16 06:12:22;;;;;;;13.57;7.93;;;;;;;;;;5078029;28;20213;-28
2023/03/16 06:14:51;;;;;;;10.20;6.87;;;;;;;;;;5078329;28;20212;-35
2023/03/16 06:17:19;;;;;;;11.53;7.67;;;;;;;;;;5088647;28;20238;-34
2023/03/16 06:19:46;;;;;;;13.33;7.83;;;;;;;;;;5078149;28;20196;-33
2023/03/16 06:22:13;;;;;;;10.17;7.43;;;;;;;;;;5090749;28;20205;-26
2023/03/16 06:24:49;;;;;;;13.70;7.93;;;;;;;;;;5090864;28;20200;-31
2023/03/16 06:27:17;;;;;;;9.73;7.53;;;;;;;;;;5088814;28;20224;-32
2023/03/16 06:29:44;;;;;;;11.27;7.17;;;;;;;;;;5074852;28;20599;-31
2023/03/16 06:32:13;;;;;;;11.07;7.10;;;;;;;;;;5089444;28;20216;-33
2023/03/16 06:34:40;;;;;;;10.33;7.93;;;;;;;;;;5085645;28;20211;-30
2023/03/16 06:37:07;;;;;;;14.83;8.10;;;;;;;;;;5079650;28;20271;-35
2023/03/16 06:39:34;;;;;;;13.07;8.07;;;;;;;;;;5085067;28;20204;-33
2023/03/16 06:42:03;;;;;;;10.90;8.10;;;;;;;;;;5090176;28;20205;-36
2023/03/16 06:44:30;;;;;;;11.33;8.50;;;;;;;;;;5078339;28;20233;-32
2023/03/16 06:46:57;;;;;;;11.80;8.97;;;;;;;;;;5089223;28;20281;-30
2023/03/16 06:49:26;;;;;;;13.73;9.37;;;;;;;;;;5089618;28;20276;-29
2023/03/16 06:51:53;;;;;;;11.53;7.87;;;;;;;;;;5089412;28;20232;-33
2023/03/16 06:54:31;;;;;;;11.70;7.50;;;;;;;;;;5076601;28;20204;-32
2023/03/16 06:56:58;;;;;;;12.47;8.10;;;;;;;;;;5085436;28;20633;-29
2023/03/16 06:59:25;;;;;;;12.13;7.93;;;;;;;;;;5088702;28;20211;-35
2023/03/16 07:01:52;;;;;;;12.60;8.33;;;;;;;;;;5092183;28;20212;-28
2023/03/16 07:04:20;;;;;;;13.90;8.93;;;;;;;;;;5091153;28;20204;-28
2023/03/16 07:06:50;;;;;;;10.53;8.30;;;;;;;;;;5093388;28;20286;-29
2023/03/16 07:09:20;;;;;;;9.83;7.50;;;;;;;;;;5084397;28;20209;-32
2023/03/16 07:11:47;;;;;;;9.17;7.60;;;;;;;;;;5092238;28;20266;-28
2023/03/16 07:14:24;;;;;;;11.20;8.43;;;;;;;;;;5085628;28;20212;-30
2023/03/16 07:17:00;;;;;;;13.20;8.23;;;;;;;;;;5085330;28;20220;-28
2023/03/16 07:19:27;;;;;;;8.27;6.70;;;;;;;;;;5080749;28;20423;-31
2023/03/16 07:21:56;;;;;;;9.33;7.13;;;;;;;;;;5093070;28;20204;-29
2023/03/16 07:24:23;;;;;;;9.43;7.70;;;;;;;;;;5092373;28;20201;-27
2023/03/16 07:26:50;;;;;;;10.33;7.30;;;;;;;;;;5092701;28;20231;-30
2023/03/16 07:29:17;;;;;;;9.63;7.30;;;;;;;;;;5080081;28;20234;-33
2023/03/16 07:31:44;;;;;;;11.63;7.80;;;;;;;;;;5091402;28;20204;-32
2023/03/16 07:34:11;;;;;;;11.90;7.23;;;;;;;;;;5092375;28;20212;-32
2023/03/16 07:36:41;;;;;;;10.80;7.03;;;;;;;;;;5092664;28;20225;-33
2023/03/16 07:39:13;;;;;;;12.70;7.60;;;;;;;;;;5081863;28;20205;-26
2023/03/16 07:41:40;;;;;;;11.87;7.97;;;;;;;;;;5091410;28;20599;-34
2023/03/16 07:44:10;;;;;;;10.93;7.53;;;;;;;;;;5084644;28;20209;-28
2023/03/16 07:46:37;;;;;;;12.03;8.23;;;;;;;;;;5087363;28;20216;-38
2023/03/16 07:49:04;;;;;;;10.63;7.73;;;;;;;;;;5089671;28;20292;-32
2023/03/16 07:51:31;;;;;;;9.53;7.10;;;;;;;;;;5090905;28;20203;-32
2023/03/16 07:53:58;;;;;;;11.60;7.27;;;;;;;;;;5089361;28;20200;-30
2023/03/16 07:56:27;;;;;;;10.50;7.03;;;;;;;;;;5084642;28;20224;-31
2023/03/16 07:58:54;;;;;;;9.80;6.77;;;;;;;;;;5088877;28;20205;-33
2023/03/16 08:01:22;;;;;;;9.07;6.50;;;;;;;;;;5082589;28;20220;-31
2023/03/16 08:03:55;;;;;;;9.17;6.60;;;;;;;;;;5094171;28;20209;-30
2023/03/16 08:06:24;;;;;;;9.17;7.10;;;;;;;;;;5091622;28;20231;-35
2023/03/16 08:08:51;;;;;;;9.17;6.53;;;;;;;;;;5086270;28;20228;-30
2023/03/16 08:11:22;;;;;;;8.40;6.60;;;;;;;;;;5087883;28;20212;-31
2023/03/16 08:13:53;;;;;;;8.90;6.50;;;;;;;;;;5085725;28;20200;-30
2023/03/16 08:16:20;;;;;;;7.93;5.27;;;;;;;;;;5083514;28;20199;-34
2023/03/16 08:18:49;;;;;;;9.97;6.80;;;;;;;;;;5090866;28;20203;-38
2023/03/16 08:21:16;;;;;;;7.13;5.80;;;;;;;;;;5084192;28;20224;-38
2023/03/16 08:23:48;;;;;;;10.73;6.50;;;;;;;;;;5089834;28;20205;-35
2023/03/16 08:26:17;;;;;;;6.77;4.80;;;;;;;;;;5090431;28;20205;-30
2023/03/16 08:28:46;;;;;;;8.40;6.40;;;;;;;;;;5087223;28;20208;-33
2023/03/16 08:31:15;;;;;;;6.57;5.03;;;;;;;;;;5087349;28;20212;-34
2023/03/16 08:33:43;;;;;;;9.57;5.83;;;;;;;;;;5091343;28;20204;-31
2023/03/16 08:36:12;;;;;;;8.13;5.23;;;;;;;;;;5091166;28;20239;-28
2023/03/16 08:38:39;;;;;;;4.30;3.50;;;;;;;;;;5085765;28;20350;-37
2023/03/16 08:41:07;;;;;;;8.27;5.40;;;;;;;;;;5084452;28;20304;-29
2023/03/16 08:43:36;;;;;;;8.97;5.80;;;;;;;;;;5083927;28;20202;-27
2023/03/16 08:46:04;;;;;;;8.70;6.07;;;;;;;;;;5086207;28;20200;-33
2023/03/16 08:48:33;;;;;;;8.50;5.80;;;;;;;;;;5090674;28;20224;-31
2023/03/16 08:51:02;;;;;;;8.10;5.57;;;;;;;;;;5090912;28;20254;-29
2023/03/16 08:53:30;;;;;;;7.63;5.63;;;;;;;;;;5085214;28;20218;-29
2023/03/16 08:56:03;;;;;;;6.30;5.37;;;;;;;;;;5086223;28;20216;-32
2023/03/16 08:58:31;;;;;;;7.27;5.00;;;;;;;;;;5086590;28;20224;-27
2023/03/16 09:00:59;;;;;;;5.23;4.60;;;;;;;;;;5084951;28;20204;-34
2023/03/16 09:03:26;;;;;;;5.40;4.67;;;;;;;;;;5090794;28;20201;-31
2023/03/16 09:05:56;;;;;;;5.77;4.87;;;;;;;;;;5091287;28;20216;-27
2023/03/16 09:08:23;;;;;;;5.33;4.77;;;;;;;;;;5084483;28;20278;-33
2023/03/16 09:10:50;;;;;;;13.87;5.37;;;;;;;;;;5090011;28;20201;-30
2023/03/16 09:13:18;;;;;;;5.23;4.30;;;;;;;;;;5089203;28;20197;-30
2023/03/16 09:15:45;;;;;;;5.77;3.83;;;;;;;;;;5084830;28;20217;-27
2023/03/16 09:18:12;;;;;;;4.37;3.97;;;;;;;;;;5092852;28;20220;-30
2023/03/16 09:20:39;;;;;;;9.43;4.13;;;;;;;;;;5095306;28;20204;-31
2023/03/16 09:23:43;;;;;;;5.73;3.83;;;;;;;;;;5094818;28;20205;-30
2023/03/16 09:26:12;;;;;;;4.13;3.37;;;;;;;;;;5090033;28;20212;-29
2023/03/16 09:28:40;;;;;;;4.07;3.63;;;;;;;;;;5085138;28;20229;-31
2023/03/16 09:31:08;;;;;;;4.57;3.60;;;;;;;;;;5088652;28;20197;-32
2023/03/16 09:33:36;;;;;;;5.80;3.40;;;;;;;;;;5089220;28;20196;-29
2023/03/16 09:36:03;;;;;;;5.50;3.53;;;;;;;;;;5087491;28;20197;-28
2023/03/16 09:38:31;;;;;;;3.53;3.20;;;;;;;;;;5086628;28;20230;-30
2023/03/16 09:40:59;;;;;;;4.63;3.27;;;;;;;;;;5089558;28;20203;-30
2023/03/16 09:43:42;;;;;;;8.13;3.87;;;;;;;;;;5087063;28;20192;-32
2023/03/16 09:46:10;;;;;;;6.70;4.00;;;;;;;;;;5086879;28;20196;-34
2023/03/16 09:48:38;;;;;;;7.13;4.60;;;;;;;;;;5079656;28;20192;-30
2023/03/16 09:51:07;;;;;;;3.83;3.53;;;;;;;;;;5090012;28;20203;-34
2023/03/16 09:53:35;;;;;;;5.60;4.17;;;;;;;;;;5081645;28;20205;-33
2023/03/16 09:56:04;;;;;;;6.50;4.67;;;;;;;;;;5085826;28;20211;-35
2023/03/16 09:58:32;;;;;;;5.83;4.33;;;;;;;;;;5086035;28;20221;-35
2023/03/16 10:01:08;;;;;;;5.67;3.67;;;;;;;;;;5087015;28;20205;-33
2023/03/16 10:03:55;;;;;;;6.17;3.87;;;;;;;;;;5087334;28;20198;-29
2023/03/16 10:06:23;;;;;;;5.60;4.10;;;;;;;;;;5089846;28;20240;-31
2023/03/16 10:08:53;;;;;;;9.40;4.80;;;;;;;;;;5070021;28;20296;-29
2023/03/16 10:11:26;;;;;;;6.40;4.00;;;;;;;;;;5089027;28;20215;-31
2023/03/16 10:13:56;;;;;;;6.50;4.67;;;;;;;;;;5084831;28;20254;-33
2023/03/16 10:16:29;;;;;;;5.47;4.03;;;;;;;;;;5089482;28;20315;-31
2023/03/16 10:18:59;;;;;;;5.33;3.93;;;;;;;;;;5082016;28;20213;-28
2023/03/16 10:21:26;;;;;;;5.27;4.10;;;;;;;;;;5092404;28;20263;-28
2023/03/16 10:23:55;;;;;;;5.80;3.67;;;;;;;;;;5092735;28;20215;-35
2023/03/16 10:26:24;;;;;;;4.83;3.90;;;;;;;;;;5092178;28;20200;-36
2023/03/16 10:28:55;;;;;;;3.97;3.43;;;;;;;;;;5094010;28;20200;-29
2023/03/16 10:31:23;;;;;;;4.37;3.33;;;;;;;;;;5084259;28;20208;-35
2023/03/16 10:33:56;;;;;;;6.43;3.33;;;;;;;;;;5091591;28;20209;-34
2023/03/16 10:36:25;;;;;;;6.53;3.23;;;;;;;;;;5094202;28;20311;-30
2023/03/16 10:38:58;;;;;;;5.37;3.17;;;;;;;;;;5089258;28;20520;-34
2023/03/16 10:41:28;;;;;;;4.97;3.17;;;;;;;;;;5091485;28;20232;-35
2023/03/16 10:43:57;;;;;;;3.70;2.90;;;;;;;;;;5085769;28;20220;-26
2023/03/16 10:46:24;;;;;;;3.77;2.90;;;;;;;;;;5090177;28;20301;-30
2023/03/16 10:48:58;;;;;;;7.30;3.23;;;;;;;;;;5084909;28;20226;-35
2023/03/16 10:51:28;;;;;;;3.13;2.80;;;;;;;;;;5092471;28;20189;-32
2023/03/16 10:53:59;;;;;;;3.53;2.97;;;;;;;;;;5089415;28;20197;-29
2023/03/16 10:56:28;;;;;;;4.93;3.13;;;;;;;;;;5090446;28;20224;-29
2023/03/16 10:58:55;;;;;;;4.47;4.07;;;;;;;;;;5086544;28;20221;-26
2023/03/16 11:01:25;;;;;;;3.13;2.83;;;;;;;;;;5092242;28;20205;-32
2023/03/16 11:03:55;;;;;;;3.63;2.67;;;;;;;;;;5087663;28;20189;-28
2023/03/16 11:06:24;;;;;;;5.20;3.07;;;;;;;;;;5094753;28;20220;-29
2023/03/16 11:08:52;;;;;;;2.90;2.43;;;;;;;;;;5093284;28;20665;-34
2023/03/16 11:11:24;;;;;;;4.97;2.40;;;;;;;;;;5091282;28;20208;-31
2023/03/16 11:13:56;;;;;;;3.23;2.40;;;;;;;;;;5082247;28;20249;-30
2023/03/16 11:16:25;;;;;;;2.87;2.60;;;;;;;;;;5093445;28;20216;-30
2023/03/16 11:18:55;;;;;;;2.33;2.10;;;;;;;;;;5094685;28;20216;-34
2023/03/16 11:21:26;;;;;;;3.43;2.43;;;;;;;;;;5095859;28;20199;-35
2023/03/16 11:23:55;;;;;;;3.30;2.40;;;;;;;;;;5092959;28;20207;-32
2023/03/16 11:26:24;;;;;;;2.47;2.17;;;;;;;;;;5095024;28;20200;-33
2023/03/16 11:28:55;;;;;;;2.30;2.10;;;;;;;;;;5088159;28;20206;-34
2023/03/16 11:31:26;;;;;;;2.87;2.07;;;;;;;;;;5092977;28;20220;-30
2023/03/16 11:33:56;;;;;;;2.27;2.10;;;;;;;;;;5095357;28;20197;-35
2023/03/16 11:36:39;;;;;;;7.13;4.70;;;;;;;;;;5095448;28;20220;-35
2023/03/16 11:39:09;;;;;;;2.43;2.23;;;;;;;;;;5089689;28;20228;-30
2023/03/16 11:41:44;;;;;;;3.93;2.40;;;;;;;;;;5094644;28;20204;-31
2023/03/16 11:44:15;;;;;;;4.10;2.50;;;;;;;;;;5088489;28;20236;-35
2023/03/16 11:46:43;;;;;;;2.37;2.17;;;;;;;;;;5092945;28;20229;-35
2023/03/16 11:49:23;;;;;;;1.93;1.73;;;;;;;;;;5094390;28;20193;-38
2023/03/16 11:51:57;;;;;;;2.43;2.20;;;;;;;;;;5095383;28;20211;-30
2023/03/16 11:54:33;;;;;;;3.30;2.63;;;;;;;;;;5085814;28;20208;-27
2023/03/16 11:57:02;;;;;;;2.73;2.00;;;;;;;;;;5094646;28;20235;-33
2023/03/16 11:59:40;;;;;;;3.37;2.10;;;;;;;;;;5091745;28;20232;-32
2023/03/16 12:02:19;;;;;;;3.10;2.03;;;;;;;;;;5094250;28;20211;-28
2023/03/16 12:04:53;;;;;;;2.73;2.30;;;;;;;;;;5094395;28;20287;-35
2023/03/16 12:07:27;;;;;;;4.07;2.43;;;;;;;;;;5090760;28;20220;-30
2023/03/16 12:10:09;;;;;;;2.60;2.40;;;;;;;;;;5093765;28;20201;-32
2023/03/16 12:12:41;;;;;;;3.63;1.90;;;;;;;;;;5094271;28;20291;-33
2023/03/16 12:15:24;;;;;;;2.33;2.13;;;;;;;;;;5083315;28;20200;-33
2023/03/16 12:17:53;;;;;;;4.07;2.37;;;;;;;;;;5092115;28;20224;-30
2023/03/16 12:20:23;;;;;;;2.60;2.30;;;;;;;;;;5091153;28;20197;-27
2023/03/16 12:22:52;;;;;;;2.37;1.83;;;;;;;;;;5091045;28;20272;-33
2023/03/16 12:25:21;;;;;;;2.53;1.93;;;;;;;;;;5091735;28;20200;-30
2023/03/16 12:27:49;;;;;;;4.17;2.20;;;;;;;;;;5093850;28;20229;-32
2023/03/16 12:30:24;;;;;;;2.67;2.47;;;;;;;;;;5083539;28;20208;-27
2023/03/16 12:32:54;;;;;;;2.20;1.53;;;;;;;;;;5091002;28;20192;-32
2023/03/16 12:35:29;;;;;;;2.30;2.10;;;;;;;;;;5094473;28;20204;-34
2023/03/16 12:38:00;;;;;;;3.03;2.10;;;;;;;;;;5091998;28;20303;-31
2023/03/16 12:40:32;;;;;;;2.33;2.10;;;;;;;;;;5085228;28;20201;-32
2023/03/16 12:43:15;;;;;;;2.47;2.10;;;;;;;;;;5092965;28;20201;-35
2023/03/16 12:45:46;;;;;;;2.57;1.77;;;;;;;;;;5054212;28;20220;-29
2023/03/16 12:48:16;;;;;;;2.73;2.27;;;;;;;;;;5093628;28;20224;-37
2023/03/16 12:50:50;;;;;;;2.60;2.33;;;;;;;;;;5093576;28;20230;-32
2023/03/16 12:53:41;;;;;;;2.07;1.87;;;;;;;;;;5089264;28;20207;-25
2023/03/16 12:56:09;;;;;;;2.20;2.00;;;;;;;;;;5084054;28;20200;-32
2023/03/16 12:58:36;;;;;;;2.33;2.13;;;;;;;;;;5087136;28;20686;-35
2023/03/16 13:01:08;;;;;;;2.30;2.10;;;;;;;;;;5090138;28;20236;-32
2023/03/16 13:03:35;;;;;;;3.80;2.40;;;;;;;;;;5091346;28;20201;-35
2023/03/16 13:06:04;;;;;;;2.47;2.27;;;;;;;;;;5093399;28;20204;-35
2023/03/16 13:08:42;;;;;;;2.07;1.87;;;;;;;;;;5090949;28;20205;-30
2023/03/16 13:11:11;;;;;;;3.07;2.17;;;;;;;;;;5089179;28;20308;-27
2023/03/16 13:13:51;;;;;;;5.17;2.17;;;;;;;;;;5085992;28;20212;-37
2023/03/16 13:16:26;;;;;;;2.90;2.60;;;;;;;;;;5088221;28;20197;-30
2023/03/16 13:18:53;;;;;;;3.53;2.33;;;;;;;;;;5085308;28;20231;-35
2023/03/16 13:21:24;;;;;;;4.97;2.57;;;;;;;;;;5093407;28;20228;-36
2023/03/16 13:23:56;;;;;;;3.10;2.20;;;;;;;;;;5084170;28;20201;-33
2023/03/16 13:26:27;;;;;;;2.50;2.30;;;;;;;;;;5089444;28;20227;-32
2023/03/16 13:28:55;;;;;;;3.40;2.70;;;;;;;;;;5087844;28;20288;-30
2023/03/16 13:31:25;;;;;;;2.93;2.60;;;;;;;;;;5091732;28;20387;-32
2023/03/16 13:33:55;;;;;;;3.37;2.60;;;;;;;;;;5092640;28;20258;-31
2023/03/16 13:36:24;;;;;;;5.00;2.60;;;;;;;;;;5090943;28;20537;-28
2023/03/16 13:39:05;;;;;;;4.17;3.63;;;;;;;;;;5086203;28;20240;-34
2023/03/16 13:41:33;;;;;;;4.03;2.23;;;;;;;;;;5092905;28;20197;-33
2023/03/16 13:44:00;;;;;;;3.37;2.50;;;;;;;;;;5084742;28;20205;-35
2023/03/16 13:46:29;;;;;;;3.37;2.90;;;;;;;;;;5090835;28;20307;-29
2023/03/16 13:48:58;;;;;;;3.00;2.50;;;;;;;;;;5092279;28;20207;-31
2023/03/16 13:51:39;;;;;;;3.53;3.17;;;;;;;;;;5090111;28;20258;-35
2023/03/16 13:54:13;;;;;;;4.23;3.00;;;;;;;;;;5089911;28;20204;-29
2023/03/16 13:56:43;;;;;;;4.70;3.03;;;;;;;;;;5092548;28;20226;-28
2023/03/16 13:59:10;;;;;;;5.10;3.17;;;;;;;;;;5088935;28;20220;-32
2023/03/16 14:01:37;;;;;;;4.10;3.23;;;;;;;;;;5091456;28;20204;-33
2023/03/16 14:04:12;;;;;;;4.17;3.50;;;;;;;;;;5090879;28;20193;-30
2023/03/16 14:06:41;;;;;;;4.37;3.27;;;;;;;;;;5082104;28;20284;-36
2023/03/16 14:09:13;;;;;;;5.10;3.63;;;;;;;;;;5087397;28;20196;-30
2023/03/16 14:11:43;;;;;;;3.90;3.50;;;;;;;;;;5088650;28;20200;-33
2023/03/16 14:14:14;;;;;;;4.57;3.23;;;;;;;;;;5082012;28;20260;-29
2023/03/16 14:16:43;;;;;;;3.90;3.50;;;;;;;;;;5090203;28;20686;-31
2023/03/16 14:19:18;;;;;;;3.90;3.37;;;;;;;;;;5090469;28;20239;-29
2023/03/16 14:21:47;;;;;;;3.93;3.30;;;;;;;;;;5088083;28;20207;-33
2023/03/16 14:24:20;;;;;;;5.13;3.60;;;;;;;;;;5092326;28;20217;-29
2023/03/16 14:26:48;;;;;;;5.23;3.77;;;;;;;;;;5092321;28;20217;-33
2023/03/16 14:29:18;;;;;;;5.50;3.73;;;;;;;;;;5087731;28;20197;-30
2023/03/16 14:31:46;;;;;;;4.13;3.73;;;;;;;;;;5091756;28;20216;-35
2023/03/16 14:34:28;;;;;;;7.57;3.63;;;;;;;;;;5092149;28;20416;-36
2023/03/16 14:37:07;;;;;;;3.80;3.47;;;;;;;;;;5092577;28;20227;-30
2023/03/16 14:39:34;;;;;;;3.47;3.17;;;;;;;;;;5085171;28;20289;-33
2023/03/16 14:42:03;;;;;;;5.50;3.40;;;;;;;;;;5090073;28;20265;-33
2023/03/16 14:49:36;;;;;;;5.43;3.60;;;;;;;;;;5084403;22;20233;-23
2023/03/16 14:52:05;;;;;;;3.50;3.20;;;;;;;;;;5047897;28;20267;-28
2023/03/16 14:54:33;;;;;;;5.43;3.70;;;;;;;;;;5046483;28;20202;-28
2023/03/16 14:57:01;;;;;;;3.67;3.37;;;;;;;;;;5047371;28;20233;-27
2023/03/16 14:59:29;;;;;;;3.87;3.50;;;;;;;;;;5045119;28;20229;-26